createdAt,value
2023-03-02T00:02:02.111Z,23.67
2023-03-02T00:04:42.256Z,23.23
2023-03-02T00:07:17.428Z,25.20
2023-03-02T00:09:49.565Z,25.02
2023-03-02T00:12:21.807Z,23.73
2023-03-02T00:14:53.779Z,26.63
2023-03-02T00:17:28.540Z,27.35
2023-03-02T00:20:12.841Z,23.85
2023-03-02T00:22:46.713Z,25.50
2023-03-02T00:25:19.482Z,25.27
2023-03-02T00:27:51.529Z,25.58
2023-03-02T00:30:23.957Z,23.65
2023-03-02T00:32:56.514Z,25.92
2023-03-02T00:35:31.315Z,28.02
2023-03-02T00:38:03.313Z,24.10
2023-03-02T00:40:36.103Z,24.20
2023-03-02T00:43:08.074Z,25.05
2023-03-02T00:45:40.189Z,23.95
2023-03-02T00:48:12.202Z,22.00
2023-03-02T00:50:46.780Z,22.45
2023-03-02T00:53:19.457Z,23.38
2023-03-02T00:55:54.900Z,26.73
2023-03-02T01:13:53.476Z,25.00
2023-03-02T01:31:39.578Z,25.88
2023-03-02T01:34:11.596Z,24.75
2023-03-02T01:39:18.163Z,23.13
2023-03-02T01:41:52.424Z,25.58
2023-03-02T01:44:40.915Z,21.92
2023-03-02T01:47:17.382Z,24.48
2023-03-02T01:49:53.152Z,22.50
2023-03-02T01:52:29.559Z,27.90
2023-03-02T01:55:06.909Z,28.52
2023-03-02T01:57:43.744Z,25.27
2023-03-02T02:00:21.864Z,25.25
2023-03-02T02:03:08.756Z,25.95
2023-03-02T02:05:43.207Z,25.08
2023-03-02T02:08:18.171Z,23.67
2023-03-02T02:10:50.736Z,27.75
2023-03-02T02:13:22.715Z,28.50
2023-03-02T02:18:27.026Z,27.20
2023-03-02T02:20:59.553Z,24.98
2023-03-02T02:23:42.768Z,24.70
2023-03-02T02:26:23.515Z,25.77
2023-03-02T02:28:59.486Z,26.20
2023-03-02T02:31:36.245Z,24.13
2023-03-02T02:34:16.066Z,25.75
2023-03-02T02:36:49.588Z,24.70
2023-03-02T02:39:25.749Z,22.08
2023-03-02T02:42:05.092Z,24.63
2023-03-02T02:44:37.248Z,25.92
2023-03-02T02:47:16.261Z,25.90
2023-03-02T02:49:50.658Z,27.95
2023-03-02T02:52:27.046Z,24.58
2023-03-02T02:54:59.333Z,27.15
2023-03-02T02:57:34.029Z,26.73
2023-03-02T03:00:12.273Z,23.60
2023-03-02T03:05:17.947Z,22.38
2023-03-02T03:07:50.069Z,29.90
2023-03-02T03:10:28.871Z,23.77
2023-03-02T03:13:03.415Z,24.27
2023-03-02T03:15:35.372Z,23.38
2023-03-02T03:18:07.358Z,25.40
2023-03-02T03:23:13.216Z,25.30
2023-03-02T03:25:45.237Z,22.38
2023-03-02T03:30:51.595Z,25.42
2023-03-02T03:35:55.815Z,21.73
2023-03-02T03:38:29.326Z,28.05
2023-03-02T03:41:01.340Z,24.88
2023-03-02T03:46:08.012Z,25.77
2023-03-02T03:48:40.754Z,23.92
2023-03-02T03:51:12.754Z,22.38
2023-03-02T03:56:16.546Z,27.17
2023-03-02T03:58:54.061Z,21.35
2023-03-02T04:01:30.020Z,23.55
2023-03-02T04:04:02.466Z,25.02
2023-03-02T04:06:35.063Z,24.98
2023-03-02T04:09:07.942Z,26.88
2023-03-02T04:11:42.480Z,23.70
2023-03-02T04:14:18.242Z,27.23
2023-03-02T04:16:51.322Z,25.30
2023-03-02T04:19:23.812Z,24.55
2023-03-02T04:21:56.064Z,25.65
2023-03-02T04:24:28.055Z,24.63
2023-03-02T04:27:00.273Z,27.10
2023-03-02T04:29:34.941Z,26.50
2023-03-02T04:32:08.044Z,22.48
2023-03-02T04:34:40.527Z,25.08
2023-03-02T04:37:13.352Z,23.70
2023-03-02T04:39:50.157Z,25.75
2023-03-02T04:42:22.635Z,26.83
2023-03-02T04:44:57.252Z,25.67
2023-03-02T04:47:29.298Z,26.20
2023-03-02T04:52:33.151Z,23.63
2023-03-02T04:57:37.517Z,21.70
2023-03-02T05:02:45.739Z,20.52
2023-03-02T05:05:20.557Z,26.85
2023-03-02T05:07:53.342Z,28.50
2023-03-02T05:10:26.322Z,26.33
2023-03-02T05:13:05.200Z,27.13
2023-03-02T05:15:41.043Z,24.13
2023-03-02T05:18:13.434Z,23.80
2023-03-02T05:20:45.789Z,25.20
2023-03-02T05:23:25.549Z,20.42
2023-03-02T05:25:57.940Z,24.98
2023-03-02T05:31:04.894Z,23.65
2023-03-02T05:33:36.919Z,22.02
2023-03-02T05:38:40.787Z,23.70
2023-03-02T05:41:13.561Z,27.08
2023-03-02T05:43:45.622Z,24.23
2023-03-02T05:48:54.371Z,23.85
2023-03-02T05:51:26.504Z,25.23
2023-03-02T05:53:58.524Z,23.38
2023-03-02T05:59:05.858Z,27.23
2023-03-02T06:01:41.006Z,26.90
2023-03-02T06:04:13.025Z,25.80
2023-03-02T06:06:45.062Z,29.00
2023-03-02T06:11:52.134Z,23.73
2023-03-02T06:14:24.221Z,25.45
2023-03-02T06:19:30.788Z,25.77
2023-03-02T06:22:02.972Z,27.63
2023-03-02T06:24:35.516Z,27.77
2023-03-02T06:27:07.583Z,30.83
2023-03-02T06:32:14.184Z,26.25
2023-03-02T06:34:46.319Z,29.15
2023-03-02T06:39:50.033Z,29.58
2023-03-02T06:42:22.808Z,24.85
2023-03-02T06:44:55.210Z,26.38
2023-03-02T06:47:29.906Z,33.10
2023-03-02T06:50:02.286Z,25.13
2023-03-02T06:52:35.223Z,26.52
2023-03-02T06:55:08.490Z,25.45
2023-03-02T06:57:40.447Z,28.73
2023-03-02T07:00:17.207Z,27.45
2023-03-02T07:02:52.302Z,29.23
2023-03-02T07:05:24.964Z,29.88
2023-03-02T07:07:56.948Z,23.27
2023-03-02T07:10:29.089Z,26.33
2023-03-02T07:15:32.927Z,23.88
2023-03-02T07:18:07.923Z,27.95
2023-03-02T07:20:39.960Z,27.25
2023-03-02T07:23:11.993Z,28.00
2023-03-02T07:25:44.033Z,29.52
2023-03-02T07:28:16.097Z,26.95
2023-03-02T07:33:22.676Z,25.35
2023-03-02T07:35:54.702Z,21.50
2023-03-02T07:40:58.563Z,23.38
2023-03-02T07:46:08.800Z,25.30
2023-03-02T07:48:43.397Z,24.30
2023-03-02T07:51:18.199Z,21.90
2023-03-02T07:53:50.187Z,28.17
2023-03-02T07:56:22.184Z,26.80
2023-03-02T07:58:54.220Z,21.75
2023-03-02T08:04:00.622Z,20.55
2023-03-02T08:06:32.621Z,24.02
2023-03-02T08:11:37.211Z,29.15
2023-03-02T08:16:41.058Z,21.42
2023-03-02T08:19:15.818Z,25.80
2023-03-02T08:21:47.846Z,23.15
2023-03-02T08:26:51.617Z,23.52
2023-03-02T08:31:59.009Z,19.80
2023-03-02T08:34:34.000Z,25.23
2023-03-02T08:42:09.917Z,24.48
2023-03-02T08:44:41.851Z,23.50
2023-03-02T08:47:13.839Z,25.23
2023-03-02T08:52:20.668Z,22.17
2023-03-02T08:59:24.956Z,25.00
2023-03-02T10:12:48.366Z,18.40
2023-03-02T10:26:26.137Z,19.80
2023-03-02T10:29:10.589Z,17.73
2023-03-02T10:31:43.497Z,22.08
2023-03-02T10:41:56.151Z,18.55
2023-03-02T11:10:34.511Z,18.60
2023-03-02T11:13:18.433Z,20.05
2023-03-02T11:15:54.395Z,17.05
2023-03-02T11:18:30.996Z,20.10
2023-03-02T11:21:06.425Z,17.88
2023-03-02T11:23:48.765Z,19.13
2023-03-02T11:26:23.856Z,19.77
2023-03-02T11:29:00.832Z,21.15
2023-03-02T11:31:42.894Z,17.02
2023-03-02T11:34:26.319Z,16.77
2023-03-02T11:37:14.009Z,19.88
2023-03-02T11:40:04.083Z,17.08
2023-03-02T11:48:02.473Z,19.60
2023-03-02T11:50:41.272Z,18.65
2023-03-02T11:55:49.544Z,15.30
2023-03-02T11:58:25.351Z,17.27
2023-03-02T12:03:44.921Z,17.33
2023-03-02T12:06:34.451Z,17.65
2023-03-02T12:14:36.476Z,14.80
2023-03-02T12:17:22.277Z,16.73
2023-03-02T12:22:41.333Z,19.10
2023-03-02T12:30:31.703Z,18.30
2023-03-02T12:35:39.954Z,15.53
2023-03-02T12:38:23.043Z,25.50
2023-03-02T12:46:22.254Z,16.25
2023-03-02T12:49:17.218Z,16.35
2023-03-02T12:54:28.405Z,16.85
2023-03-02T12:59:41.634Z,15.10
2023-03-02T13:02:16.887Z,16.00
2023-03-02T13:12:50.972Z,17.05
2023-03-02T13:15:23.023Z,14.23
2023-03-02T13:17:56.950Z,16.55
2023-03-02T13:20:30.240Z,16.65
2023-03-02T13:23:05.065Z,20.55
2023-03-02T13:28:27.552Z,21.13
2023-03-02T13:31:02.561Z,15.02
2023-03-02T13:33:43.459Z,20.60
2023-03-02T13:36:18.594Z,17.10
2023-03-02T13:38:56.242Z,14.65
2023-03-02T13:41:30.547Z,16.38
2023-03-02T13:44:16.934Z,13.68
2023-03-02T14:04:54.311Z,15.65
2023-03-02T14:07:26.384Z,14.65
2023-03-02T15:03:44.136Z,14.80
2023-03-02T15:06:26.249Z,14.02
2023-03-02T15:09:00.238Z,14.68
2023-03-02T15:11:36.685Z,14.40
2023-03-02T15:16:42.880Z,14.30
2023-03-02T15:19:15.005Z,12.80
2023-03-02T15:26:57.076Z,13.52
2023-03-02T15:32:00.928Z,15.73
2023-03-02T15:34:32.994Z,12.95
2023-03-02T15:37:04.981Z,15.10
2023-03-02T15:39:36.963Z,15.52
2023-03-02T15:42:13.807Z,16.45
2023-03-02T15:44:46.263Z,11.85
2023-03-02T15:47:18.391Z,13.73
2023-03-02T15:49:50.379Z,13.25
2023-03-02T15:52:22.356Z,12.15
2023-03-02T15:54:54.368Z,13.20
2023-03-02T15:57:40.568Z,13.55
2023-03-02T16:00:14.039Z,17.10
2023-03-02T16:02:48.722Z,14.27
2023-03-02T16:05:20.814Z,16.30
2023-03-02T16:07:54.502Z,13.85
2023-03-02T16:10:30.104Z,14.43
2023-03-02T16:13:05.803Z,17.77
2023-03-02T16:15:40.109Z,16.50
2023-03-02T16:23:16.134Z,18.27
2023-03-02T16:25:49.678Z,15.88
2023-03-02T16:28:24.244Z,15.48
2023-03-02T16:31:03.877Z,14.65
2023-03-02T16:33:36.294Z,13.05
2023-03-02T16:36:09.728Z,13.80
2023-03-02T16:41:15.936Z,15.02
2023-03-02T16:46:24.704Z,12.65
2023-03-02T16:48:58.043Z,13.48
2023-03-02T16:51:30.365Z,16.05
2023-03-02T16:54:02.445Z,12.27
2023-03-02T16:56:34.589Z,15.38
2023-03-02T16:59:09.167Z,15.13
2023-03-02T17:01:41.383Z,15.82
2023-03-02T17:04:13.539Z,14.95
2023-03-02T17:06:59.950Z,20.02
2023-03-02T17:09:35.294Z,23.20
2023-03-02T17:12:08.348Z,15.88
2023-03-02T17:14:42.908Z,18.85
2023-03-02T17:24:50.368Z,19.48
2023-03-02T17:27:25.954Z,21.38
2023-03-02T17:32:32.609Z,22.25
2023-03-02T17:35:05.380Z,18.20
2023-03-02T17:37:38.066Z,14.50
2023-03-02T17:40:13.612Z,16.63
2023-03-02T17:42:45.593Z,16.05
2023-03-02T17:45:22.566Z,17.33
2023-03-02T17:47:56.683Z,15.43
2023-03-02T17:50:31.975Z,19.58
2023-03-02T17:53:03.993Z,15.18
2023-03-02T17:55:36.067Z,13.90
2023-03-02T17:58:08.056Z,18.77
2023-03-02T18:00:42.667Z,14.63
2023-03-02T18:03:14.686Z,17.48
2023-03-02T18:05:46.746Z,13.82
2023-03-02T18:08:18.711Z,16.83
2023-03-02T18:10:51.325Z,17.60
2023-03-02T18:13:23.305Z,14.95
2023-03-02T18:15:57.970Z,13.27
2023-03-02T18:18:29.961Z,14.38
2023-03-02T18:21:02.293Z,16.75
2023-03-02T18:23:34.573Z,11.52
2023-03-02T18:26:06.580Z,11.48
2023-03-02T18:28:38.817Z,15.15
2023-03-02T18:31:15.521Z,17.48
2023-03-02T18:33:48.499Z,16.83
2023-03-02T18:36:20.617Z,16.55
2023-03-02T18:38:53.963Z,13.43
2023-03-02T18:41:25.943Z,13.50
2023-03-02T18:43:59.687Z,14.77
2023-03-02T18:46:34.562Z,15.95
2023-03-02T18:49:06.590Z,13.20
2023-03-02T18:51:38.775Z,15.05
2023-03-02T18:54:10.807Z,15.23
2023-03-02T18:56:43.116Z,16.60
2023-03-02T18:59:17.718Z,18.15
2023-03-02T19:01:52.299Z,16.00
2023-03-02T19:04:26.614Z,17.75
2023-03-02T19:07:00.815Z,16.42
2023-03-02T19:09:33.245Z,17.58
2023-03-02T19:12:05.985Z,17.08
2023-03-02T19:14:39.570Z,19.23
2023-03-02T19:17:14.357Z,20.02
2023-03-02T19:19:46.377Z,22.30
2023-03-02T19:22:18.532Z,21.15
2023-03-02T19:24:50.534Z,22.13
2023-03-02T19:27:22.534Z,19.70
2023-03-02T19:29:54.803Z,22.15
2023-03-02T19:32:29.539Z,29.08
2023-03-02T19:35:02.492Z,25.08
2023-03-02T19:37:34.493Z,25.50
2023-03-02T19:40:08.301Z,23.27
2023-03-02T19:42:40.626Z,22.95
2023-03-02T19:45:15.920Z,23.25
2023-03-02T19:47:50.507Z,22.67
2023-03-02T19:50:23.054Z,25.80
2023-03-02T19:52:55.219Z,24.52
2023-03-02T19:55:27.525Z,23.63
2023-03-02T19:58:01.086Z,23.08
2023-03-02T20:00:33.763Z,27.02
2023-03-02T20:03:08.610Z,22.85
2023-03-02T20:05:40.645Z,22.52
2023-03-02T20:08:12.805Z,23.20
2023-03-02T20:10:46.615Z,21.15
2023-03-02T20:13:18.780Z,25.05
2023-03-02T20:15:51.836Z,26.33
2023-03-02T20:18:26.523Z,25.27
2023-03-02T20:20:58.694Z,23.20
2023-03-02T20:23:30.704Z,25.38
2023-03-02T20:26:03.318Z,25.10
2023-03-02T20:28:38.423Z,25.58
2023-03-02T20:31:14.947Z,24.83
2023-03-02T20:33:56.034Z,26.83
2023-03-02T20:36:32.120Z,25.70
2023-03-02T20:39:08.833Z,25.60
2023-03-02T20:41:46.880Z,27.70
2023-03-02T20:44:23.402Z,25.25
2023-03-02T20:46:59.991Z,28.15
2023-03-02T20:49:35.342Z,23.27
2023-03-02T20:52:08.641Z,27.13
2023-03-02T20:54:42.723Z,26.25
2023-03-02T20:57:20.396Z,26.27
2023-03-02T20:59:52.494Z,30.08
2023-03-02T21:02:24.532Z,30.02
2023-03-02T21:04:59.196Z,26.23
2023-03-02T21:07:31.317Z,28.48
2023-03-02T21:10:03.840Z,32.28
2023-03-02T21:12:35.918Z,27.08
2023-03-02T21:15:09.061Z,26.67
2023-03-02T21:17:41.088Z,27.88
2023-03-02T21:20:18.334Z,30.13
2023-03-02T21:22:50.610Z,27.67
2023-03-02T21:25:22.657Z,29.88
2023-03-02T21:27:55.384Z,29.05
2023-03-02T21:30:29.452Z,30.02
2023-03-02T21:33:02.358Z,27.73
2023-03-02T21:35:37.382Z,27.60
2023-03-02T21:38:10.438Z,31.73
2023-03-02T21:40:45.978Z,30.45
2023-03-02T21:43:18.455Z,29.70
2023-03-02T21:45:50.787Z,31.02
2023-03-02T21:48:23.200Z,31.17
2023-03-02T21:50:58.105Z,35.08
2023-03-02T21:53:30.650Z,35.70
2023-03-02T22:01:06.299Z,30.48
2023-03-02T22:08:48.073Z,31.38
2023-03-02T22:11:23.641Z,31.65
2023-03-02T22:13:58.452Z,36.17
2023-03-02T22:16:36.964Z,31.40
2023-03-02T22:19:26.217Z,32.25
2023-03-02T22:22:03.340Z,31.35
2023-03-02T22:24:35.408Z,32.22
2023-03-02T22:27:22.227Z,34.78
2023-03-02T22:29:57.750Z,30.70
2023-03-02T22:32:31.336Z,30.73
2023-03-02T22:35:18.086Z,33.47
2023-03-02T22:37:59.634Z,33.25
2023-03-02T22:40:33.739Z,30.60
2023-03-02T22:43:15.076Z,32.90
2023-03-02T22:45:47.143Z,36.50
2023-03-02T22:48:20.827Z,30.98
2023-03-02T22:50:52.995Z,35.60
2023-03-02T22:53:31.447Z,30.88
2023-03-02T22:56:14.819Z,33.97
2023-03-02T22:58:48.970Z,30.02
2023-03-02T23:01:23.362Z,34.00
2023-03-02T23:03:58.248Z,34.85
2023-03-02T23:06:32.056Z,35.70
2023-03-02T23:09:07.057Z,32.15
2023-03-02T23:11:41.911Z,30.00
2023-03-02T23:14:26.603Z,34.95
2023-03-02T23:17:00.255Z,37.97
2023-03-02T23:19:32.499Z,34.00
2023-03-02T23:22:04.737Z,36.28
2023-03-02T23:24:39.427Z,30.45
2023-03-02T23:27:11.778Z,34.33
2023-03-02T23:29:43.722Z,34.92
2023-03-02T23:32:17.759Z,33.65
2023-03-02T23:34:51.370Z,39.53
2023-03-02T23:37:23.362Z,34.90
2023-03-02T23:39:57.907Z,34.97
2023-03-02T23:42:30.120Z,32.78
2023-03-02T23:45:02.165Z,32.45
2023-03-02T23:47:34.173Z,36.92
2023-03-02T23:50:08.418Z,33.35
2023-03-02T23:52:41.051Z,39.55
2023-03-02T23:55:15.698Z,38.10
2023-03-02T23:57:47.667Z,33.33
